sensor_id;sensor_type;location;lat;lon;timestamp;pressure;altitude;pressure_sealevel;temperature
70533;BMP180;58088;51.186;17.130;2022-12-08T00:01:27;99680.00;;;4.10
70533;BMP180;58088;51.186;17.130;2022-12-08T00:03:54;99686.40;;;4.20
70533;BMP180;58088;51.186;17.130;2022-12-08T00:06:34;99686.40;;;4.20
70533;BMP180;58088;51.186;17.130;2022-12-08T00:09:31;99688.20;;;4.18
70533;BMP180;58088;51.186;17.130;2022-12-08T00:12:01;99685.80;;;4.10
70533;BMP180;58088;51.186;17.130;2022-12-08T00:14:38;99688.20;;;4.10
70533;BMP180;58088;51.186;17.130;2022-12-08T00:17:07;99682.40;;;4.10
70533;BMP180;58088;51.186;17.130;2022-12-08T00:19:35;99687.00;;;4.10
70533;BMP180;58088;51.186;17.130;2022-12-08T00:22:02;99683.00;;;4.10
70533;BMP180;58088;51.186;17.130;2022-12-08T00:24:32;99686.00;;;4.10
70533;BMP180;58088;51.186;17.130;2022-12-08T00:27:00;99683.60;;;4.16
70533;BMP180;58088;51.186;17.130;2022-12-08T00:29:27;99677.60;;;4.20
70533;BMP180;58088;51.186;17.130;2022-12-08T00:31:53;99667.80;;;4.20
70533;BMP180;58088;51.186;17.130;2022-12-08T00:34:20;99667.80;;;4.20
70533;BMP180;58088;51.186;17.130;2022-12-08T00:36:46;99666.00;;;4.20
70533;BMP180;58088;51.186;17.130;2022-12-08T00:39:14;99667.80;;;4.20
70533;BMP180;58088;51.186;17.130;2022-12-08T00:41:41;99664.00;;;4.20
70533;BMP180;58088;51.186;17.130;2022-12-08T00:44:26;99662.60;;;4.30
70533;BMP180;58088;51.186;17.130;2022-12-08T00:46:52;99673.80;;;4.30
70533;BMP180;58088;51.186;17.130;2022-12-08T00:49:18;99678.60;;;4.30
70533;BMP180;58088;51.186;17.130;2022-12-08T00:51:45;99685.20;;;4.38
70533;BMP180;58088;51.186;17.130;2022-12-08T00:54:11;99694.40;;;4.40
70533;BMP180;58088;51.186;17.130;2022-12-08T00:56:38;99695.60;;;4.40
70533;BMP180;58088;51.186;17.130;2022-12-08T00:59:06;99688.00;;;4.40
70533;BMP180;58088;51.186;17.130;2022-12-08T01:01:33;99698.40;;;4.40
70533;BMP180;58088;51.186;17.130;2022-12-08T01:04:09;99692.20;;;4.40
70533;BMP180;58088;51.186;17.130;2022-12-08T01:06:38;99697.20;;;4.50
70533;BMP180;58088;51.186;17.130;2022-12-08T01:09:06;99700.00;;;4.50
70533;BMP180;58088;51.186;17.130;2022-12-08T01:11:33;99699.60;;;4.50
70533;BMP180;58088;51.186;17.130;2022-12-08T01:14:00;99698.80;;;4.50
70533;BMP180;58088;51.186;17.130;2022-12-08T01:16:31;99693.40;;;4.50
70533;BMP180;58088;51.186;17.130;2022-12-08T01:18:58;99702.60;;;4.58
70533;BMP180;58088;51.186;17.130;2022-12-08T01:21:26;99696.80;;;4.60
70533;BMP180;58088;51.186;17.130;2022-12-08T01:23:53;99695.80;;;4.62
70533;BMP180;58088;51.186;17.130;2022-12-08T01:26:20;99700.80;;;4.70
70533;BMP180;58088;51.186;17.130;2022-12-08T01:28:46;99699.00;;;4.80
70533;BMP180;58088;51.186;17.130;2022-12-08T01:31:17;99695.00;;;4.88
70533;BMP180;58088;51.186;17.130;2022-12-08T01:33:45;99692.00;;;4.90
70533;BMP180;58088;51.186;17.130;2022-12-08T01:36:45;99687.60;;;5.00
70533;BMP180;58088;51.186;17.130;2022-12-08T01:39:16;99692.60;;;5.00
70533;BMP180;58088;51.186;17.130;2022-12-08T01:41:45;99681.60;;;5.00
70533;BMP180;58088;51.186;17.130;2022-12-08T01:46:42;99682.80;;;5.02
70533;BMP180;58088;51.186;17.130;2022-12-08T01:49:27;99683.20;;;5.10
70533;BMP180;58088;51.186;17.130;2022-12-08T01:52:24;99682.20;;;5.18
70533;BMP180;58088;51.186;17.130;2022-12-08T01:55:07;99683.80;;;5.20
70533;BMP180;58088;51.186;17.130;2022-12-08T01:57:50;99678.20;;;5.18
70533;BMP180;58088;51.186;17.130;2022-12-08T02:00:19;99679.20;;;5.20
70533;BMP180;58088;51.186;17.130;2022-12-08T02:03:01;99683.00;;;5.20
70533;BMP180;58088;51.186;17.130;2022-12-08T02:05:35;99683.80;;;5.20
70533;BMP180;58088;51.186;17.130;2022-12-08T02:08:08;99678.80;;;5.20
70533;BMP180;58088;51.186;17.130;2022-12-08T02:10:40;99678.60;;;5.20
70533;BMP180;58088;51.186;17.130;2022-12-08T02:13:12;99683.80;;;5.20
70533;BMP180;58088;51.186;17.130;2022-12-08T02:37:04;99677.60;;;5.30
70533;BMP180;58088;51.186;17.130;2022-12-08T02:39:49;99682.40;;;5.32
70533;BMP180;58088;51.186;17.130;2022-12-08T02:47:50;99681.00;;;5.40
70533;BMP180;58088;51.186;17.130;2022-12-08T02:50:17;99674.80;;;5.50
70533;BMP180;58088;51.186;17.130;2022-12-08T02:52:46;99672.20;;;5.60
70533;BMP180;58088;51.186;17.130;2022-12-08T02:58:37;99665.20;;;5.70
70533;BMP180;58088;51.186;17.130;2022-12-08T03:06:44;99659.80;;;5.62
70533;BMP180;58088;51.186;17.130;2022-12-08T03:09:25;99660.80;;;5.60
70533;BMP180;58088;51.186;17.130;2022-12-08T03:14:47;99658.40;;;5.60
70533;BMP180;58088;51.186;17.130;2022-12-08T03:17:17;99658.20;;;5.54
70533;BMP180;58088;51.186;17.130;2022-12-08T03:19:47;99663.80;;;5.50
70533;BMP180;58088;51.186;17.130;2022-12-08T03:22:18;99663.00;;;5.50
70533;BMP180;58088;51.186;17.130;2022-12-08T03:24:46;99657.80;;;5.60
70533;BMP180;58088;51.186;17.130;2022-12-08T03:27:19;99655.60;;;5.50
70533;BMP180;58088;51.186;17.130;2022-12-08T03:29:49;99659.60;;;5.40
70533;BMP180;58088;51.186;17.130;2022-12-08T03:32:40;99651.60;;;5.40
70533;BMP180;58088;51.186;17.130;2022-12-08T03:35:22;99651.60;;;5.40
70533;BMP180;58088;51.186;17.130;2022-12-08T03:37:49;99647.40;;;5.40
70533;BMP180;58088;51.186;17.130;2022-12-08T03:40:19;99653.00;;;5.50
70533;BMP180;58088;51.186;17.130;2022-12-08T03:42:45;99656.80;;;5.42
70533;BMP180;58088;51.186;17.130;2022-12-08T03:45:11;99663.00;;;5.40
70533;BMP180;58088;51.186;17.130;2022-12-08T03:47:37;99662.60;;;5.40
70533;BMP180;58088;51.186;17.130;2022-12-08T03:50:05;99659.40;;;5.40
70533;BMP180;58088;51.186;17.130;2022-12-08T03:52:31;99658.80;;;5.40
70533;BMP180;58088;51.186;17.130;2022-12-08T03:54:57;99661.00;;;5.40
70533;BMP180;58088;51.186;17.130;2022-12-08T03:57:23;99661.40;;;5.40
70533;BMP180;58088;51.186;17.130;2022-12-08T03:59:50;99659.20;;;5.40
70533;BMP180;58088;51.186;17.130;2022-12-08T04:02:16;99660.20;;;5.46
70533;BMP180;58088;51.186;17.130;2022-12-08T04:04:43;99656.60;;;5.40
70533;BMP180;58088;51.186;17.130;2022-12-08T04:07:09;99656.00;;;5.40
70533;BMP180;58088;51.186;17.130;2022-12-08T04:09:35;99657.40;;;5.32
70533;BMP180;58088;51.186;17.130;2022-12-08T04:12:01;99657.40;;;5.30
70533;BMP180;58088;51.186;17.130;2022-12-08T04:14:27;99662.60;;;5.30
70533;BMP180;58088;51.186;17.130;2022-12-08T04:16:54;99656.80;;;5.30
70533;BMP180;58088;51.186;17.130;2022-12-08T04:19:20;99657.80;;;5.20
70533;BMP180;58088;51.186;17.130;2022-12-08T04:21:46;99655.80;;;5.10
70533;BMP180;58088;51.186;17.130;2022-12-08T04:24:12;99652.80;;;5.10
70533;BMP180;58088;51.186;17.130;2022-12-08T04:26:38;99648.40;;;5.16
70533;BMP180;58088;51.186;17.130;2022-12-08T04:29:05;99651.20;;;5.20
70533;BMP180;58088;51.186;17.130;2022-12-08T04:31:31;99648.00;;;5.20
70533;BMP180;58088;51.186;17.130;2022-12-08T04:33:57;99646.00;;;5.20
70533;BMP180;58088;51.186;17.130;2022-12-08T04:36:23;99641.40;;;5.10
70533;BMP180;58088;51.186;17.130;2022-12-08T04:38:49;99640.00;;;5.10
70533;BMP180;58088;51.186;17.130;2022-12-08T04:41:15;99644.80;;;5.10
70533;BMP180;58088;51.186;17.130;2022-12-08T04:43:42;99646.20;;;5.10
70533;BMP180;58088;51.186;17.130;2022-12-08T04:46:09;99648.40;;;5.10
70533;BMP180;58088;51.186;17.130;2022-12-08T04:48:37;99639.40;;;5.00
70533;BMP180;58088;51.186;17.130;2022-12-08T04:51:04;99638.40;;;5.00
70533;BMP180;58088;51.186;17.130;2022-12-08T04:53:31;99634.60;;;4.94
70533;BMP180;58088;51.186;17.130;2022-12-08T04:55:57;99633.60;;;4.90
70533;BMP180;58088;51.186;17.130;2022-12-08T04:58:23;99637.80;;;4.92
70533;BMP180;58088;51.186;17.130;2022-12-08T05:00:50;99635.60;;;5.00
70533;BMP180;58088;51.186;17.130;2022-12-08T05:03:16;99628.00;;;5.00
70533;BMP180;58088;51.186;17.130;2022-12-08T05:05:43;99633.20;;;5.04
70533;BMP180;58088;51.186;17.130;2022-12-08T05:08:10;99633.80;;;5.00
70533;BMP180;58088;51.186;17.130;2022-12-08T05:10:37;99631.00;;;5.00
70533;BMP180;58088;51.186;17.130;2022-12-08T05:13:03;99630.20;;;5.00
70533;BMP180;58088;51.186;17.130;2022-12-08T05:15:29;99631.60;;;5.00
70533;BMP180;58088;51.186;17.130;2022-12-08T05:17:56;99624.00;;;5.00
70533;BMP180;58088;51.186;17.130;2022-12-08T05:20:22;99618.80;;;5.00
70533;BMP180;58088;51.186;17.130;2022-12-08T05:22:48;99623.40;;;5.00
70533;BMP180;58088;51.186;17.130;2022-12-08T05:25:14;99625.20;;;5.00
70533;BMP180;58088;51.186;17.130;2022-12-08T05:27:41;99624.60;;;5.00
70533;BMP180;58088;51.186;17.130;2022-12-08T05:30:08;99624.20;;;5.00
70533;BMP180;58088;51.186;17.130;2022-12-08T05:32:34;99622.40;;;5.00
70533;BMP180;58088;51.186;17.130;2022-12-08T05:35:00;99615.20;;;5.00
70533;BMP180;58088;51.186;17.130;2022-12-08T05:37:26;99622.20;;;4.94
70533;BMP180;58088;51.186;17.130;2022-12-08T05:39:53;99618.00;;;4.90
70533;BMP180;58088;51.186;17.130;2022-12-08T05:42:19;99612.40;;;4.90
70533;BMP180;58088;51.186;17.130;2022-12-08T05:44:45;99612.80;;;4.80
70533;BMP180;58088;51.186;17.130;2022-12-08T05:47:11;99611.20;;;4.80
70533;BMP180;58088;51.186;17.130;2022-12-08T05:49:37;99612.60;;;4.80
70533;BMP180;58088;51.186;17.130;2022-12-08T05:52:03;99617.80;;;4.80
70533;BMP180;58088;51.186;17.130;2022-12-08T05:54:29;99613.40;;;4.72
70533;BMP180;58088;51.186;17.130;2022-12-08T05:56:56;99609.80;;;4.70
70533;BMP180;58088;51.186;17.130;2022-12-08T05:59:22;99605.40;;;4.70
70533;BMP180;58088;51.186;17.130;2022-12-08T06:01:48;99614.20;;;4.68
70533;BMP180;58088;51.186;17.130;2022-12-08T06:04:14;99617.60;;;4.60
70533;BMP180;58088;51.186;17.130;2022-12-08T06:06:40;99620.40;;;4.62
70533;BMP180;58088;51.186;17.130;2022-12-08T06:09:07;99618.20;;;4.60
70533;BMP180;58088;51.186;17.130;2022-12-08T06:11:34;99615.40;;;4.60
70533;BMP180;58088;51.186;17.130;2022-12-08T06:14:00;99616.60;;;4.60
70533;BMP180;58088;51.186;17.130;2022-12-08T06:16:29;99620.20;;;4.50
70533;BMP180;58088;51.186;17.130;2022-12-08T06:18:56;99613.60;;;4.50
70533;BMP180;58088;51.186;17.130;2022-12-08T06:21:23;99611.20;;;4.48
70533;BMP180;58088;51.186;17.130;2022-12-08T06:23:52;99615.40;;;4.40
70533;BMP180;58088;51.186;17.130;2022-12-08T06:26:19;99621.20;;;4.40
70533;BMP180;58088;51.186;17.130;2022-12-08T06:28:46;99618.40;;;4.40
70533;BMP180;58088;51.186;17.130;2022-12-08T06:31:23;99620.00;;;4.36
70533;BMP180;58088;51.186;17.130;2022-12-08T06:33:50;99614.60;;;4.30
70533;BMP180;58088;51.186;17.130;2022-12-08T06:36:19;99612.00;;;4.30
70533;BMP180;58088;51.186;17.130;2022-12-08T06:38:47;99606.00;;;4.30
70533;BMP180;58088;51.186;17.130;2022-12-08T06:41:14;99610.40;;;4.30
70533;BMP180;58088;51.186;17.130;2022-12-08T06:43:41;99616.80;;;4.30
70533;BMP180;58088;51.186;17.130;2022-12-08T06:46:12;99613.20;;;4.30
70533;BMP180;58088;51.186;17.130;2022-12-08T06:48:39;99610.80;;;4.30
70533;BMP180;58088;51.186;17.130;2022-12-08T06:51:13;99620.60;;;4.30
70533;BMP180;58088;51.186;17.130;2022-12-08T06:53:41;99618.60;;;4.26
70533;BMP180;58088;51.186;17.130;2022-12-08T06:56:09;99615.80;;;4.26
70533;BMP180;58088;51.186;17.130;2022-12-08T06:58:36;99610.40;;;4.20
70533;BMP180;58088;51.186;17.130;2022-12-08T07:01:11;99610.80;;;4.22
70533;BMP180;58088;51.186;17.130;2022-12-08T07:03:38;99616.00;;;4.28
70533;BMP180;58088;51.186;17.130;2022-12-08T07:06:06;99616.00;;;4.30
70533;BMP180;58088;51.186;17.130;2022-12-08T07:08:33;99620.60;;;4.30
70533;BMP180;58088;51.186;17.130;2022-12-08T07:11:06;99622.00;;;4.30
70533;BMP180;58088;51.186;17.130;2022-12-08T07:13:33;99619.80;;;4.30
70533;BMP180;58088;51.186;17.130;2022-12-08T07:15:59;99622.80;;;4.34
70533;BMP180;58088;51.186;17.130;2022-12-08T07:18:25;99619.40;;;4.40
70533;BMP180;58088;51.186;17.130;2022-12-08T07:20:52;99621.00;;;4.40
70533;BMP180;58088;51.186;17.130;2022-12-08T07:23:18;99622.00;;;4.40
70533;BMP180;58088;51.186;17.130;2022-12-08T07:25:45;99620.20;;;4.50
70533;BMP180;58088;51.186;17.130;2022-12-08T07:28:11;99623.20;;;4.50
70533;BMP180;58088;51.186;17.130;2022-12-08T07:30:38;99627.60;;;4.50
70533;BMP180;58088;51.186;17.130;2022-12-08T07:33:04;99622.60;;;4.50
70533;BMP180;58088;51.186;17.130;2022-12-08T07:35:31;99622.20;;;4.58
70533;BMP180;58088;51.186;17.130;2022-12-08T07:37:57;99622.40;;;4.60
70533;BMP180;58088;51.186;17.130;2022-12-08T07:40:24;99618.60;;;4.62
70533;BMP180;58088;51.186;17.130;2022-12-08T07:42:50;99610.60;;;4.60
70533;BMP180;58088;51.186;17.130;2022-12-08T07:45:17;99612.60;;;4.64
70533;BMP180;58088;51.186;17.130;2022-12-08T07:47:43;99612.40;;;4.70
70533;BMP180;58088;51.186;17.130;2022-12-08T07:50:09;99615.40;;;4.70
70533;BMP180;58088;51.186;17.130;2022-12-08T07:52:35;99619.40;;;4.70
70533;BMP180;58088;51.186;17.130;2022-12-08T07:55:02;99616.40;;;4.80
70533;BMP180;58088;51.186;17.130;2022-12-08T07:57:28;99623.20;;;4.80
70533;BMP180;58088;51.186;17.130;2022-12-08T07:59:54;99617.00;;;4.88
70533;BMP180;58088;51.186;17.130;2022-12-08T08:02:20;99620.60;;;4.90
70533;BMP180;58088;51.186;17.130;2022-12-08T08:04:49;99620.80;;;5.00
70533;BMP180;58088;51.186;17.130;2022-12-08T08:07:16;99628.40;;;5.00
70533;BMP180;58088;51.186;17.130;2022-12-08T08:09:42;99624.60;;;5.00
70533;BMP180;58088;51.186;17.130;2022-12-08T08:12:09;99619.20;;;5.10
70533;BMP180;58088;51.186;17.130;2022-12-08T08:14:35;99621.60;;;5.10
70533;BMP180;58088;51.186;17.130;2022-12-08T08:17:01;99623.20;;;5.12
70533;BMP180;58088;51.186;17.130;2022-12-08T08:19:28;99619.40;;;5.20
70533;BMP180;58088;51.186;17.130;2022-12-08T08:21:54;99630.20;;;5.30
70533;BMP180;58088;51.186;17.130;2022-12-08T08:24:20;99624.00;;;5.30
70533;BMP180;58088;51.186;17.130;2022-12-08T08:26:49;99625.00;;;5.42
70533;BMP180;58088;51.186;17.130;2022-12-08T08:29:15;99625.40;;;5.50
70533;BMP180;58088;51.186;17.130;2022-12-08T08:31:41;99628.80;;;5.60
70533;BMP180;58088;51.186;17.130;2022-12-08T08:34:07;99626.40;;;5.60
70533;BMP180;58088;51.186;17.130;2022-12-08T08:36:34;99622.40;;;5.70
70533;BMP180;58088;51.186;17.130;2022-12-08T08:39:01;99621.00;;;5.78
70533;BMP180;58088;51.186;17.130;2022-12-08T08:41:27;99626.00;;;5.80
70533;BMP180;58088;51.186;17.130;2022-12-08T08:43:54;99619.60;;;5.90
70533;BMP180;58088;51.186;17.130;2022-12-08T08:46:20;99619.00;;;5.98
70533;BMP180;58088;51.186;17.130;2022-12-08T08:48:46;99622.20;;;6.00
70533;BMP180;58088;51.186;17.130;2022-12-08T08:51:14;99626.00;;;6.10
70533;BMP180;58088;51.186;17.130;2022-12-08T08:53:41;99622.40;;;6.20
70533;BMP180;58088;51.186;17.130;2022-12-08T08:56:13;99624.40;;;6.20
70533;BMP180;58088;51.186;17.130;2022-12-08T08:58:40;99621.40;;;6.24
70533;BMP180;58088;51.186;17.130;2022-12-08T09:01:07;99613.60;;;6.30
70533;BMP180;58088;51.186;17.130;2022-12-08T09:03:33;99615.00;;;6.32
70533;BMP180;58088;51.186;17.130;2022-12-08T09:05:59;99615.00;;;6.40
70533;BMP180;58088;51.186;17.130;2022-12-08T09:08:26;99611.80;;;6.50
70533;BMP180;58088;51.186;17.130;2022-12-08T09:10:52;99606.60;;;6.54
70533;BMP180;58088;51.186;17.130;2022-12-08T09:13:19;99606.80;;;6.60
70533;BMP180;58088;51.186;17.130;2022-12-08T09:15:45;99601.80;;;6.70
70533;BMP180;58088;51.186;17.130;2022-12-08T09:18:12;99599.00;;;6.70
70533;BMP180;58088;51.186;17.130;2022-12-08T09:20:38;99593.20;;;6.80
70533;BMP180;58088;51.186;17.130;2022-12-08T09:23:04;99598.20;;;6.80
70533;BMP180;58088;51.186;17.130;2022-12-08T09:25:31;99593.60;;;6.90
70533;BMP180;58088;51.186;17.130;2022-12-08T09:27:57;99588.60;;;6.96
70533;BMP180;58088;51.186;17.130;2022-12-08T09:30:23;99592.40;;;7.00
70533;BMP180;58088;51.186;17.130;2022-12-08T09:32:49;99594.60;;;7.04
70533;BMP180;58088;51.186;17.130;2022-12-08T09:35:16;99592.60;;;7.10
70533;BMP180;58088;51.186;17.130;2022-12-08T09:37:42;99591.20;;;7.10
70533;BMP180;58088;51.186;17.130;2022-12-08T09:40:14;99589.60;;;7.20
70533;BMP180;58088;51.186;17.130;2022-12-08T09:42:57;99590.40;;;7.20
70533;BMP180;58088;51.186;17.130;2022-12-08T09:45:32;99583.60;;;7.30
70533;BMP180;58088;51.186;17.130;2022-12-08T09:48:14;99581.40;;;7.30
70533;BMP180;58088;51.186;17.130;2022-12-08T09:50:57;99575.20;;;7.40
70533;BMP180;58088;51.186;17.130;2022-12-08T09:53:45;99573.80;;;7.40
70533;BMP180;58088;51.186;17.130;2022-12-08T09:56:18;99572.00;;;7.40
70533;BMP180;58088;51.186;17.130;2022-12-08T09:59:04;99573.80;;;7.40
70533;BMP180;58088;51.186;17.130;2022-12-08T10:01:34;99572.80;;;7.40
70533;BMP180;58088;51.186;17.130;2022-12-08T10:04:08;99570.40;;;7.40
70533;BMP180;58088;51.186;17.130;2022-12-08T10:06:53;99566.20;;;7.40
70533;BMP180;58088;51.186;17.130;2022-12-08T10:09:58;99572.00;;;7.50
70533;BMP180;58088;51.186;17.130;2022-12-08T10:12:54;99573.00;;;7.50
70533;BMP180;58088;51.186;17.130;2022-12-08T10:16:11;99573.60;;;7.50
70533;BMP180;58088;51.186;17.130;2022-12-08T10:18:41;99570.00;;;7.50
70533;BMP180;58088;51.186;17.130;2022-12-08T10:21:20;99572.00;;;7.50
70533;BMP180;58088;51.186;17.130;2022-12-08T10:24:00;99564.00;;;7.50
70533;BMP180;58088;51.186;17.130;2022-12-08T10:26:29;99562.80;;;7.50
70533;BMP180;58088;51.186;17.130;2022-12-08T10:29:00;99559.40;;;7.50
70533;BMP180;58088;51.186;17.130;2022-12-08T10:31:29;99550.40;;;7.44
70533;BMP180;58088;51.186;17.130;2022-12-08T10:33:59;99545.80;;;7.50
70533;BMP180;58088;51.186;17.130;2022-12-08T10:36:57;99544.00;;;7.48
70533;BMP180;58088;51.186;17.130;2022-12-08T10:39:35;99547.20;;;7.50
70533;BMP180;58088;51.186;17.130;2022-12-08T10:48:02;99543.20;;;7.50
70533;BMP180;58088;51.186;17.130;2022-12-08T10:50:35;99542.40;;;7.60
70533;BMP180;58088;51.186;17.130;2022-12-08T11:01:31;99535.40;;;7.70
70533;BMP180;58088;51.186;17.130;2022-12-08T11:04:03;99528.40;;;7.70
70533;BMP180;58088;51.186;17.130;2022-12-08T11:06:38;99526.40;;;7.70
70533;BMP180;58088;51.186;17.130;2022-12-08T11:11:47;99531.40;;;7.70
70533;BMP180;58088;51.186;17.130;2022-12-08T11:14:29;99526.20;;;7.70
70533;BMP180;58088;51.186;17.130;2022-12-08T11:17:16;99528.60;;;7.68
70533;BMP180;58088;51.186;17.130;2022-12-08T11:22:31;99524.60;;;7.72
70533;BMP180;58088;51.186;17.130;2022-12-08T11:25:26;99520.60;;;7.80
70533;BMP180;58088;51.186;17.130;2022-12-08T11:27:57;99518.20;;;7.70
70533;BMP180;58088;51.186;17.130;2022-12-08T11:30:32;99516.40;;;7.70
70533;BMP180;58088;51.186;17.130;2022-12-08T11:35:44;99516.20;;;7.70
70533;BMP180;58088;51.186;17.130;2022-12-08T11:38:18;99514.40;;;7.80
70533;BMP180;58088;51.186;17.130;2022-12-08T11:40:59;99518.40;;;7.80
70533;BMP180;58088;51.186;17.130;2022-12-08T11:46:33;99515.00;;;7.80
70533;BMP180;58088;51.186;17.130;2022-12-08T11:49:09;99511.00;;;7.82
70533;BMP180;58088;51.186;17.130;2022-12-08T11:54:23;99517.60;;;7.90
70533;BMP180;58088;51.186;17.130;2022-12-08T11:56:56;99500.80;;;7.88
70533;BMP180;58088;51.186;17.130;2022-12-08T11:59:32;99509.00;;;7.80
70533;BMP180;58088;51.186;17.130;2022-12-08T12:02:01;99504.80;;;7.90
70533;BMP180;58088;51.186;17.130;2022-12-08T12:05:05;99505.60;;;7.90
70533;BMP180;58088;51.186;17.130;2022-12-08T12:08:05;99507.00;;;7.90
70533;BMP180;58088;51.186;17.130;2022-12-08T12:10:47;99499.40;;;7.90
70533;BMP180;58088;51.186;17.130;2022-12-08T12:16:48;99502.80;;;7.98
70533;BMP180;58088;51.186;17.130;2022-12-08T12:19:19;99499.80;;;8.00
70533;BMP180;58088;51.186;17.130;2022-12-08T12:21:54;99499.80;;;8.10
70533;BMP180;58088;51.186;17.130;2022-12-08T12:24:45;99505.80;;;8.20
70533;BMP180;58088;51.186;17.130;2022-12-08T12:29:48;99494.60;;;8.30
70533;BMP180;58088;51.186;17.130;2022-12-08T12:32:16;99492.00;;;8.30
70533;BMP180;58088;51.186;17.130;2022-12-08T12:35:00;99496.40;;;8.30
70533;BMP180;58088;51.186;17.130;2022-12-08T12:37:38;99491.80;;;8.20
70533;BMP180;58088;51.186;17.130;2022-12-08T12:40:21;99487.80;;;8.10
70533;BMP180;58088;51.186;17.130;2022-12-08T12:47:50;99491.40;;;8.02
70533;BMP180;58088;51.186;17.130;2022-12-08T12:56:01;99480.80;;;8.00
70533;BMP180;58088;51.186;17.130;2022-12-08T13:03:48;99481.00;;;7.90
70533;BMP180;58088;51.186;17.130;2022-12-08T13:06:25;99485.20;;;7.90
70533;BMP180;58088;51.186;17.130;2022-12-08T13:08:58;99483.20;;;7.90
70533;BMP180;58088;51.186;17.130;2022-12-08T13:11:25;99479.80;;;8.00
70533;BMP180;58088;51.186;17.130;2022-12-08T13:14:03;99479.40;;;7.98
70533;BMP180;58088;51.186;17.130;2022-12-08T13:16:32;99483.40;;;7.90
70533;BMP180;58088;51.186;17.130;2022-12-08T13:19:04;99480.80;;;7.94
70533;BMP180;58088;51.186;17.130;2022-12-08T13:21:39;99475.40;;;7.90
70533;BMP180;58088;51.186;17.130;2022-12-08T13:29:30;99469.00;;;7.80
70533;BMP180;58088;51.186;17.130;2022-12-08T13:31:59;99462.20;;;7.76
70533;BMP180;58088;51.186;17.130;2022-12-08T13:37:16;99466.40;;;7.70
70533;BMP180;58088;51.186;17.130;2022-12-08T13:40:21;99465.20;;;7.62
70533;BMP180;58088;51.186;17.130;2022-12-08T13:45:38;99470.00;;;7.50
70533;BMP180;58088;51.186;17.130;2022-12-08T13:48:26;99464.60;;;7.40
70533;BMP180;58088;51.186;17.130;2022-12-08T13:53:39;99470.80;;;7.40
70533;BMP180;58088;51.186;17.130;2022-12-08T13:56:10;99468.00;;;7.30
70533;BMP180;58088;51.186;17.130;2022-12-08T13:58:38;99464.80;;;7.30
70533;BMP180;58088;51.186;17.130;2022-12-08T14:01:22;99467.40;;;7.20
70533;BMP180;58088;51.186;17.130;2022-12-08T14:03:55;99467.80;;;7.20
70533;BMP180;58088;51.186;17.130;2022-12-08T14:06:30;99462.40;;;7.10
70533;BMP180;58088;51.186;17.130;2022-12-08T14:09:04;99465.80;;;7.12
70533;BMP180;58088;51.186;17.130;2022-12-08T14:11:38;99463.40;;;7.10
70533;BMP180;58088;51.186;17.130;2022-12-08T14:14:18;99464.60;;;7.10
70533;BMP180;58088;51.186;17.130;2022-12-08T14:17:21;99463.60;;;7.04
70533;BMP180;58088;51.186;17.130;2022-12-08T14:20:03;99470.20;;;7.00
70533;BMP180;58088;51.186;17.130;2022-12-08T14:22:37;99465.40;;;6.90
70533;BMP180;58088;51.186;17.130;2022-12-08T14:25:11;99470.40;;;6.90
70533;BMP180;58088;51.186;17.130;2022-12-08T14:27:38;99469.80;;;6.90
70533;BMP180;58088;51.186;17.130;2022-12-08T14:32:53;99463.60;;;6.80
70533;BMP180;58088;51.186;17.130;2022-12-08T14:35:50;99464.20;;;6.80
70533;BMP180;58088;51.186;17.130;2022-12-08T14:38:19;99472.20;;;6.70
70533;BMP180;58088;51.186;17.130;2022-12-08T14:41:08;99472.20;;;6.70
70533;BMP180;58088;51.186;17.130;2022-12-08T14:43:36;99478.20;;;6.70
70533;BMP180;58088;51.186;17.130;2022-12-08T14:46:18;99483.80;;;6.60
70533;BMP180;58088;51.186;17.130;2022-12-08T14:48:46;99489.20;;;6.60
70533;BMP180;58088;51.186;17.130;2022-12-08T14:54:19;99489.60;;;6.50
70533;BMP180;58088;51.186;17.130;2022-12-08T14:56:55;99488.40;;;6.48
70533;BMP180;58088;51.186;17.130;2022-12-08T14:59:27;99489.20;;;6.40
70533;BMP180;58088;51.186;17.130;2022-12-08T15:05:04;99487.40;;;6.40
70533;BMP180;58088;51.186;17.130;2022-12-08T15:07:48;99487.20;;;6.30
70533;BMP180;58088;51.186;17.130;2022-12-08T15:15:56;99484.60;;;6.26
70533;BMP180;58088;51.186;17.130;2022-12-08T15:18:39;99489.40;;;6.20
70533;BMP180;58088;51.186;17.130;2022-12-08T15:21:09;99488.80;;;6.20
70533;BMP180;58088;51.186;17.130;2022-12-08T15:23:44;99486.20;;;6.20
70533;BMP180;58088;51.186;17.130;2022-12-08T15:26:25;99489.20;;;6.10
70533;BMP180;58088;51.186;17.130;2022-12-08T15:28:54;99490.80;;;6.06
70533;BMP180;58088;51.186;17.130;2022-12-08T15:31:20;99488.20;;;6.00
70533;BMP180;58088;51.186;17.130;2022-12-08T15:33:47;99482.20;;;5.94
70533;BMP180;58088;51.186;17.130;2022-12-08T15:36:14;99488.60;;;5.90
70533;BMP180;58088;51.186;17.130;2022-12-08T15:38:41;99491.40;;;5.90
70533;BMP180;58088;51.186;17.130;2022-12-08T15:41:08;99492.00;;;5.90
70533;BMP180;58088;51.186;17.130;2022-12-08T15:43:34;99491.00;;;5.90
70533;BMP180;58088;51.186;17.130;2022-12-08T15:46:00;99492.40;;;5.90
70533;BMP180;58088;51.186;17.130;2022-12-08T15:48:29;99495.20;;;5.90
70533;BMP180;58088;51.186;17.130;2022-12-08T15:50:56;99487.40;;;5.90
70533;BMP180;58088;51.186;17.130;2022-12-08T15:53:22;99492.00;;;5.90
70533;BMP180;58088;51.186;17.130;2022-12-08T15:55:49;99484.20;;;5.90
70533;BMP180;58088;51.186;17.130;2022-12-08T15:58:23;99484.80;;;5.90
70533;BMP180;58088;51.186;17.130;2022-12-08T16:00:51;99485.20;;;5.90
70533;BMP180;58088;51.186;17.130;2022-12-08T16:05:46;99483.20;;;5.90
70533;BMP180;58088;51.186;17.130;2022-12-08T16:08:14;99484.20;;;5.90
70533;BMP180;58088;51.186;17.130;2022-12-08T16:10:41;99487.80;;;5.90
70533;BMP180;58088;51.186;17.130;2022-12-08T16:13:18;99477.80;;;5.90
70533;BMP180;58088;51.186;17.130;2022-12-08T16:16:06;99487.40;;;5.90
70533;BMP180;58088;51.186;17.130;2022-12-08T16:18:37;99484.00;;;5.90
70533;BMP180;58088;51.186;17.130;2022-12-08T16:21:04;99487.40;;;5.90
70533;BMP180;58088;51.186;17.130;2022-12-08T16:23:31;99485.60;;;5.90
70533;BMP180;58088;51.186;17.130;2022-12-08T16:25:58;99488.20;;;5.90
70533;BMP180;58088;51.186;17.130;2022-12-08T16:28:25;99478.80;;;5.90
70533;BMP180;58088;51.186;17.130;2022-12-08T16:30:52;99480.80;;;5.88
70533;BMP180;58088;51.186;17.130;2022-12-08T16:33:18;99482.60;;;5.90